sensor_id;sensor_type;location;lat;lon;timestamp;temperature;humidity
9509;DHT22;4792;50.088;8.122;2022-12-18T00:02:25;-4.90;99.90
9509;DHT22;4792;50.088;8.122;2022-12-18T00:04:53;-5.00;99.90
9509;DHT22;4792;50.088;8.122;2022-12-18T00:07:21;-5.00;99.90
9509;DHT22;4792;50.088;8.122;2022-12-18T00:09:49;-5.00;99.90
9509;DHT22;4792;50.088;8.122;2022-12-18T00:12:17;-4.90;99.90
9509;DHT22;4792;50.088;8.122;2022-12-18T00:14:47;-4.80;99.90
9509;DHT22;4792;50.088;8.122;2022-12-18T00:17:15;-4.70;99.90
9509;DHT22;4792;50.088;8.122;2022-12-18T00:19:43;-4.70;99.90
9509;DHT22;4792;50.088;8.122;2022-12-18T00:22:11;-4.70;99.90
9509;DHT22;4792;50.088;8.122;2022-12-18T00:24:39;-4.60;99.90
9509;DHT22;4792;50.088;8.122;2022-12-18T00:27:07;-4.60;99.90
9509;DHT22;4792;50.088;8.122;2022-12-18T00:29:35;-4.60;99.90
9509;DHT22;4792;50.088;8.122;2022-12-18T00:32:05;-4.50;99.90
9509;DHT22;4792;50.088;8.122;2022-12-18T00:34:33;-4.60;99.90
9509;DHT22;4792;50.088;8.122;2022-12-18T00:37:01;-4.60;99.90
9509;DHT22;4792;50.088;8.122;2022-12-18T00:39:29;-4.60;99.90
9509;DHT22;4792;50.088;8.122;2022-12-18T00:41:57;-4.60;99.90
9509;DHT22;4792;50.088;8.122;2022-12-18T00:44:42;-4.60;99.90
9509;DHT22;4792;50.088;8.122;2022-12-18T00:47:12;-4.70;99.90
9509;DHT22;4792;50.088;8.122;2022-12-18T00:49:40;-4.60;99.90
9509;DHT22;4792;50.088;8.122;2022-12-18T00:52:08;-4.60;99.90
9509;DHT22;4792;50.088;8.122;2022-12-18T00:54:36;-4.60;99.90
9509;DHT22;4792;50.088;8.122;2022-12-18T00:57:04;-4.60;99.90
9509;DHT22;4792;50.088;8.122;2022-12-18T00:59:32;-4.60;99.90
9509;DHT22;4792;50.088;8.122;2022-12-18T01:02:00;-4.70;99.90
9509;DHT22;4792;50.088;8.122;2022-12-18T01:04:32;-4.70;99.90
9509;DHT22;4792;50.088;8.122;2022-12-18T01:07:00;-4.80;99.90
9509;DHT22;4792;50.088;8.122;2022-12-18T01:09:28;-4.80;99.90
9509;DHT22;4792;50.088;8.122;2022-12-18T01:11:57;-4.80;99.90
9509;DHT22;4792;50.088;8.122;2022-12-18T01:14:25;-4.70;99.90
9509;DHT22;4792;50.088;8.122;2022-12-18T01:16:53;-4.80;99.90
9509;DHT22;4792;50.088;8.122;2022-12-18T01:19:21;-4.80;99.90
9509;DHT22;4792;50.088;8.122;2022-12-18T01:21:51;-4.80;99.90
9509;DHT22;4792;50.088;8.122;2022-12-18T01:24:20;-4.80;99.90
9509;DHT22;4792;50.088;8.122;2022-12-18T01:26:48;-4.80;99.90
9509;DHT22;4792;50.088;8.122;2022-12-18T01:29:16;-4.80;99.90
9509;DHT22;4792;50.088;8.122;2022-12-18T01:31:44;-4.80;99.90
9509;DHT22;4792;50.088;8.122;2022-12-18T01:34:12;-4.80;99.90
9509;DHT22;4792;50.088;8.122;2022-12-18T01:36:40;-4.70;99.90
9509;DHT22;4792;50.088;8.122;2022-12-18T01:39:12;-4.70;99.90
9509;DHT22;4792;50.088;8.122;2022-12-18T01:41:41;-4.70;99.90
9509;DHT22;4792;50.088;8.122;2022-12-18T01:44:56;-4.70;99.90
9509;DHT22;4792;50.088;8.122;2022-12-18T01:47:29;-4.70;99.90
9509;DHT22;4792;50.088;8.122;2022-12-18T01:50:00;-4.70;99.90
9509;DHT22;4792;50.088;8.122;2022-12-18T01:52:31;-4.70;99.90
9509;DHT22;4792;50.088;8.122;2022-12-18T01:55:03;-4.70;99.90
9509;DHT22;4792;50.088;8.122;2022-12-18T01:57:34;-4.70;99.90
9509;DHT22;4792;50.088;8.122;2022-12-18T02:00:06;-4.70;99.90
9509;DHT22;4792;50.088;8.122;2022-12-18T02:02:35;-4.70;99.90
9509;DHT22;4792;50.088;8.122;2022-12-18T02:05:04;-4.80;99.90
9509;DHT22;4792;50.088;8.122;2022-12-18T02:07:40;-4.70;99.90
9509;DHT22;4792;50.088;8.122;2022-12-18T02:10:17;-4.70;99.90
9509;DHT22;4792;50.088;8.122;2022-12-18T02:12:51;-4.70;99.90
9509;DHT22;4792;50.088;8.122;2022-12-18T02:15:25;-4.70;99.90
9509;DHT22;4792;50.088;8.122;2022-12-18T02:18:03;-4.70;99.90
9509;DHT22;4792;50.088;8.122;2022-12-18T02:20:43;-4.70;99.90
9509;DHT22;4792;50.088;8.122;2022-12-18T02:23:24;-4.70;99.90
9509;DHT22;4792;50.088;8.122;2022-12-18T02:26:11;-4.70;99.90
9509;DHT22;4792;50.088;8.122;2022-12-18T02:28:44;-4.70;99.90
9509;DHT22;4792;50.088;8.122;2022-12-18T02:31:16;-4.60;99.90
9509;DHT22;4792;50.088;8.122;2022-12-18T02:33:46;-4.60;99.90
9509;DHT22;4792;50.088;8.122;2022-12-18T02:36:16;-4.70;99.90
9509;DHT22;4792;50.088;8.122;2022-12-18T02:38:46;-4.70;99.90
9509;DHT22;4792;50.088;8.122;2022-12-18T02:41:17;-4.70;99.90
9509;DHT22;4792;50.088;8.122;2022-12-18T02:43:49;-4.70;99.90
9509;DHT22;4792;50.088;8.122;2022-12-18T02:46:30;-4.70;99.90
9509;DHT22;4792;50.088;8.122;2022-12-18T02:49:11;-4.70;99.90
9509;DHT22;4792;50.088;8.122;2022-12-18T02:51:48;-4.80;99.90
9509;DHT22;4792;50.088;8.122;2022-12-18T02:54:25;-4.80;99.90
9509;DHT22;4792;50.088;8.122;2022-12-18T02:56:59;-4.80;99.90
9509;DHT22;4792;50.088;8.122;2022-12-18T02:59:36;-4.90;99.90
9509;DHT22;4792;50.088;8.122;2022-12-18T03:02:15;-4.90;99.90
9509;DHT22;4792;50.088;8.122;2022-12-18T03:04:47;-4.80;99.90
9509;DHT22;4792;50.088;8.122;2022-12-18T03:07:24;-4.90;99.90
9509;DHT22;4792;50.088;8.122;2022-12-18T03:09:54;-4.90;99.90
9509;DHT22;4792;50.088;8.122;2022-12-18T03:12:30;-4.90;99.90
9509;DHT22;4792;50.088;8.122;2022-12-18T03:15:03;-4.90;99.90
9509;DHT22;4792;50.088;8.122;2022-12-18T03:17:33;-4.90;99.90
9509;DHT22;4792;50.088;8.122;2022-12-18T03:20:05;-5.00;99.90
9509;DHT22;4792;50.088;8.122;2022-12-18T03:22:55;-5.00;99.90
9509;DHT22;4792;50.088;8.122;2022-12-18T03:25:25;-5.00;99.90
9509;DHT22;4792;50.088;8.122;2022-12-18T03:27:58;-5.00;99.90
9509;DHT22;4792;50.088;8.122;2022-12-18T03:30:29;-5.00;99.90
9509;DHT22;4792;50.088;8.122;2022-12-18T03:33:02;-5.00;99.90
9509;DHT22;4792;50.088;8.122;2022-12-18T03:35:35;-4.90;99.90
9509;DHT22;4792;50.088;8.122;2022-12-18T03:38:05;-5.00;99.90
9509;DHT22;4792;50.088;8.122;2022-12-18T03:40:43;-5.00;99.90
9509;DHT22;4792;50.088;8.122;2022-12-18T03:43:18;-5.00;99.90
9509;DHT22;4792;50.088;8.122;2022-12-18T03:45:52;-4.90;99.90
9509;DHT22;4792;50.088;8.122;2022-12-18T03:48:28;-5.00;99.90
9509;DHT22;4792;50.088;8.122;2022-12-18T03:50:59;-5.00;99.90
9509;DHT22;4792;50.088;8.122;2022-12-18T03:53:35;-5.00;99.90
9509;DHT22;4792;50.088;8.122;2022-12-18T03:56:06;-5.00;99.90
9509;DHT22;4792;50.088;8.122;2022-12-18T03:58:38;-5.00;99.90
9509;DHT22;4792;50.088;8.122;2022-12-18T04:01:08;-5.00;99.90
9509;DHT22;4792;50.088;8.122;2022-12-18T04:03:39;-4.90;99.90
9509;DHT22;4792;50.088;8.122;2022-12-18T04:06:10;-5.00;99.90
9509;DHT22;4792;50.088;8.122;2022-12-18T04:08:39;-5.00;99.90
9509;DHT22;4792;50.088;8.122;2022-12-18T04:11:07;-4.90;99.90
9509;DHT22;4792;50.088;8.122;2022-12-18T04:13:38;-4.90;99.90
9509;DHT22;4792;50.088;8.122;2022-12-18T04:16:07;-5.00;99.90
9509;DHT22;4792;50.088;8.122;2022-12-18T04:18:36;-4.90;99.90
9509;DHT22;4792;50.088;8.122;2022-12-18T04:21:05;-5.00;99.90
9509;DHT22;4792;50.088;8.122;2022-12-18T04:23:33;-5.00;99.90
9509;DHT22;4792;50.088;8.122;2022-12-18T04:26:01;-5.00;99.90
9509;DHT22;4792;50.088;8.122;2022-12-18T04:28:29;-5.00;99.90
9509;DHT22;4792;50.088;8.122;2022-12-18T04:30:58;-5.10;99.90
9509;DHT22;4792;50.088;8.122;2022-12-18T04:33:26;-5.00;99.90
9509;DHT22;4792;50.088;8.122;2022-12-18T04:35:54;-5.00;99.90
9509;DHT22;4792;50.088;8.122;2022-12-18T04:38:22;-5.00;99.90
9509;DHT22;4792;50.088;8.122;2022-12-18T04:40:50;-5.00;99.90
9509;DHT22;4792;50.088;8.122;2022-12-18T04:43:19;-5.10;99.90
9509;DHT22;4792;50.088;8.122;2022-12-18T04:45:47;-5.10;99.90
9509;DHT22;4792;50.088;8.122;2022-12-18T04:48:16;-5.10;99.90
9509;DHT22;4792;50.088;8.122;2022-12-18T04:50:44;-5.10;99.90
9509;DHT22;4792;50.088;8.122;2022-12-18T04:53:12;-5.20;99.90
9509;DHT22;4792;50.088;8.122;2022-12-18T04:55:40;-5.20;99.90
9509;DHT22;4792;50.088;8.122;2022-12-18T04:58:08;-5.10;99.90
9509;DHT22;4792;50.088;8.122;2022-12-18T05:00:36;-5.10;99.90
9509;DHT22;4792;50.088;8.122;2022-12-18T05:03:05;-5.20;99.90
9509;DHT22;4792;50.088;8.122;2022-12-18T05:05:35;-5.20;99.90
9509;DHT22;4792;50.088;8.122;2022-12-18T05:08:04;-5.20;99.90
9509;DHT22;4792;50.088;8.122;2022-12-18T05:10:32;-5.20;99.90
9509;DHT22;4792;50.088;8.122;2022-12-18T05:13:04;-5.20;99.90
9509;DHT22;4792;50.088;8.122;2022-12-18T05:15:32;-5.10;99.90
9509;DHT22;4792;50.088;8.122;2022-12-18T05:18:02;-5.20;99.90
9509;DHT22;4792;50.088;8.122;2022-12-18T05:20:31;-5.20;99.90
9509;DHT22;4792;50.088;8.122;2022-12-18T05:23:00;-5.20;99.90
9509;DHT22;4792;50.088;8.122;2022-12-18T05:25:28;-5.20;99.90
9509;DHT22;4792;50.088;8.122;2022-12-18T05:27:56;-5.20;99.90
9509;DHT22;4792;50.088;8.122;2022-12-18T05:30:25;-5.20;99.90
9509;DHT22;4792;50.088;8.122;2022-12-18T05:32:54;-5.20;99.90
9509;DHT22;4792;50.088;8.122;2022-12-18T05:35:22;-5.20;99.90
9509;DHT22;4792;50.088;8.122;2022-12-18T05:37:50;-5.30;99.90
9509;DHT22;4792;50.088;8.122;2022-12-18T05:40:19;-5.20;99.90
9509;DHT22;4792;50.088;8.122;2022-12-18T05:42:48;-5.20;99.90
9509;DHT22;4792;50.088;8.122;2022-12-18T05:45:16;-5.20;99.90
9509;DHT22;4792;50.088;8.122;2022-12-18T05:47:44;-5.20;99.90
9509;DHT22;4792;50.088;8.122;2022-12-18T05:50:12;-5.10;99.90
9509;DHT22;4792;50.088;8.122;2022-12-18T05:52:40;-5.10;99.90
9509;DHT22;4792;50.088;8.122;2022-12-18T05:55:08;-5.10;99.90
9509;DHT22;4792;50.088;8.122;2022-12-18T05:57:38;-5.20;99.90
9509;DHT22;4792;50.088;8.122;2022-12-18T06:00:07;-5.20;99.90
9509;DHT22;4792;50.088;8.122;2022-12-18T06:02:35;-5.20;99.90
9509;DHT22;4792;50.088;8.122;2022-12-18T06:05:05;-5.20;99.90
9509;DHT22;4792;50.088;8.122;2022-12-18T06:07:33;-5.20;99.90
9509;DHT22;4792;50.088;8.122;2022-12-18T06:10:02;-5.30;99.90
9509;DHT22;4792;50.088;8.122;2022-12-18T06:12:30;-5.20;99.90
9509;DHT22;4792;50.088;8.122;2022-12-18T06:15:01;-5.30;99.90
9509;DHT22;4792;50.088;8.122;2022-12-18T06:17:30;-5.20;99.90
9509;DHT22;4792;50.088;8.122;2022-12-18T06:19:58;-5.30;99.90
9509;DHT22;4792;50.088;8.122;2022-12-18T06:22:27;-5.30;99.90
9509;DHT22;4792;50.088;8.122;2022-12-18T06:24:55;-5.30;99.90
9509;DHT22;4792;50.088;8.122;2022-12-18T06:27:24;-5.30;99.90
9509;DHT22;4792;50.088;8.122;2022-12-18T06:29:52;-5.30;99.90
9509;DHT22;4792;50.088;8.122;2022-12-18T06:32:22;-5.30;99.90
9509;DHT22;4792;50.088;8.122;2022-12-18T06:34:50;-5.30;99.90
9509;DHT22;4792;50.088;8.122;2022-12-18T06:37:18;-5.40;99.90
9509;DHT22;4792;50.088;8.122;2022-12-18T06:39:46;-5.30;99.90
9509;DHT22;4792;50.088;8.122;2022-12-18T06:42:14;-5.30;99.90
9509;DHT22;4792;50.088;8.122;2022-12-18T06:44:42;-5.30;99.90
9509;DHT22;4792;50.088;8.122;2022-12-18T06:47:11;-5.40;99.90
9509;DHT22;4792;50.088;8.122;2022-12-18T06:49:40;-5.40;99.90
9509;DHT22;4792;50.088;8.122;2022-12-18T06:52:08;-5.30;99.90
9509;DHT22;4792;50.088;8.122;2022-12-18T06:54:36;-5.30;99.90
9509;DHT22;4792;50.088;8.122;2022-12-18T06:57:04;-5.40;99.90
9509;DHT22;4792;50.088;8.122;2022-12-18T06:59:33;-5.40;99.90
9509;DHT22;4792;50.088;8.122;2022-12-18T07:02:01;-5.40;99.90
9509;DHT22;4792;50.088;8.122;2022-12-18T07:04:30;-5.40;99.90
9509;DHT22;4792;50.088;8.122;2022-12-18T07:06:59;-5.50;99.90
9509;DHT22;4792;50.088;8.122;2022-12-18T07:09:27;-5.50;99.90
9509;DHT22;4792;50.088;8.122;2022-12-18T07:11:56;-5.50;99.90
9509;DHT22;4792;50.088;8.122;2022-12-18T07:14:25;-5.40;99.90
9509;DHT22;4792;50.088;8.122;2022-12-18T07:16:53;-5.40;99.90
9509;DHT22;4792;50.088;8.122;2022-12-18T07:19:21;-5.40;99.90
9509;DHT22;4792;50.088;8.122;2022-12-18T07:21:49;-5.40;99.90
9509;DHT22;4792;50.088;8.122;2022-12-18T07:24:19;-5.40;99.90
9509;DHT22;4792;50.088;8.122;2022-12-18T07:26:47;-5.40;99.90
9509;DHT22;4792;50.088;8.122;2022-12-18T07:29:15;-5.40;99.90
9509;DHT22;4792;50.088;8.122;2022-12-18T07:31:43;-5.30;99.90
9509;DHT22;4792;50.088;8.122;2022-12-18T07:34:13;-5.40;99.90
9509;DHT22;4792;50.088;8.122;2022-12-18T07:36:41;-5.40;99.90
9509;DHT22;4792;50.088;8.122;2022-12-18T07:39:10;-5.40;99.90
9509;DHT22;4792;50.088;8.122;2022-12-18T07:41:40;-5.30;99.90
9509;DHT22;4792;50.088;8.122;2022-12-18T07:44:13;-5.30;99.90
9509;DHT22;4792;50.088;8.122;2022-12-18T07:46:41;-5.20;99.90
9509;DHT22;4792;50.088;8.122;2022-12-18T07:49:09;-4.90;99.90
9509;DHT22;4792;50.088;8.122;2022-12-18T07:51:37;-4.50;99.90
9509;DHT22;4792;50.088;8.122;2022-12-18T07:54:05;-4.10;99.90
9509;DHT22;4792;50.088;8.122;2022-12-18T07:56:33;-3.90;99.90
9509;DHT22;4792;50.088;8.122;2022-12-18T07:59:04;-3.70;99.90
9509;DHT22;4792;50.088;8.122;2022-12-18T08:01:33;-3.60;99.90
9509;DHT22;4792;50.088;8.122;2022-12-18T08:04:02;-3.50;99.90
9509;DHT22;4792;50.088;8.122;2022-12-18T08:06:31;-3.30;99.90
9509;DHT22;4792;50.088;8.122;2022-12-18T08:08:59;-3.10;99.90
9509;DHT22;4792;50.088;8.122;2022-12-18T08:11:28;-2.90;99.90
9509;DHT22;4792;50.088;8.122;2022-12-18T08:13:57;-2.60;99.90
9509;DHT22;4792;50.088;8.122;2022-12-18T08:16:27;-2.50;99.90
9509;DHT22;4792;50.088;8.122;2022-12-18T08:18:55;-2.30;99.90
9509;DHT22;4792;50.088;8.122;2022-12-18T08:21:25;-2.30;99.90
9509;DHT22;4792;50.088;8.122;2022-12-18T08:23:55;-2.30;99.90
9509;DHT22;4792;50.088;8.122;2022-12-18T08:26:25;-2.20;99.90
9509;DHT22;4792;50.088;8.122;2022-12-18T08:28:54;-2.10;99.90
9509;DHT22;4792;50.088;8.122;2022-12-18T08:31:23;-2.10;99.90
9509;DHT22;4792;50.088;8.122;2022-12-18T08:33:54;-2.20;99.90
9509;DHT22;4792;50.088;8.122;2022-12-18T08:36:23;-2.10;99.90
9509;DHT22;4792;50.088;8.122;2022-12-18T08:38:53;-2.10;99.90
9509;DHT22;4792;50.088;8.122;2022-12-18T08:41:21;-2.00;99.90
9509;DHT22;4792;50.088;8.122;2022-12-18T08:43:49;-1.90;99.90
9509;DHT22;4792;50.088;8.122;2022-12-18T08:46:36;-1.90;99.90
9509;DHT22;4792;50.088;8.122;2022-12-18T08:49:06;-2.00;99.90
9509;DHT22;4792;50.088;8.122;2022-12-18T08:51:35;-2.10;99.90
9509;DHT22;4792;50.088;8.122;2022-12-18T08:54:04;-2.10;99.90
9509;DHT22;4792;50.088;8.122;2022-12-18T08:56:33;-2.10;99.90
9509;DHT22;4792;50.088;8.122;2022-12-18T08:59:01;-2.10;99.90
9509;DHT22;4792;50.088;8.122;2022-12-18T09:01:31;-2.20;99.90
9509;DHT22;4792;50.088;8.122;2022-12-18T09:04:01;-2.20;99.90
9509;DHT22;4792;50.088;8.122;2022-12-18T09:06:31;-2.30;99.90
9509;DHT22;4792;50.088;8.122;2022-12-18T09:08:59;-2.30;99.90
9509;DHT22;4792;50.088;8.122;2022-12-18T09:11:28;-2.30;99.90
9509;DHT22;4792;50.088;8.122;2022-12-18T09:13:57;-2.50;99.90
9509;DHT22;4792;50.088;8.122;2022-12-18T09:16:26;-2.60;99.90
9509;DHT22;4792;50.088;8.122;2022-12-18T09:18:59;-2.70;99.90
9509;DHT22;4792;50.088;8.122;2022-12-18T09:21:29;-2.80;99.90
9509;DHT22;4792;50.088;8.122;2022-12-18T09:24:02;-2.60;99.90
9509;DHT22;4792;50.088;8.122;2022-12-18T09:26:34;-2.60;99.90
9509;DHT22;4792;50.088;8.122;2022-12-18T09:29:02;-2.60;99.90
9509;DHT22;4792;50.088;8.122;2022-12-18T09:31:31;-2.60;99.90
9509;DHT22;4792;50.088;8.122;2022-12-18T09:33:59;-2.50;99.90
9509;DHT22;4792;50.088;8.122;2022-12-18T09:36:27;-2.60;99.90
9509;DHT22;4792;50.088;8.122;2022-12-18T09:38:55;-2.30;99.90
9509;DHT22;4792;50.088;8.122;2022-12-18T09:41:37;-2.40;99.90
9509;DHT22;4792;50.088;8.122;2022-12-18T09:44:19;-2.40;99.90
9509;DHT22;4792;50.088;8.122;2022-12-18T09:47:04;-2.50;99.90
9509;DHT22;4792;50.088;8.122;2022-12-18T09:49:36;-2.90;99.90
9509;DHT22;4792;50.088;8.122;2022-12-18T09:52:11;-2.90;99.90
9509;DHT22;4792;50.088;8.122;2022-12-18T09:54:42;-3.10;99.90
9509;DHT22;4792;50.088;8.122;2022-12-18T09:57:15;-3.10;99.90
9509;DHT22;4792;50.088;8.122;2022-12-18T09:59:49;-3.30;99.90
9509;DHT22;4792;50.088;8.122;2022-12-18T10:02:21;-2.90;99.90
9509;DHT22;4792;50.088;8.122;2022-12-18T10:05:00;-2.70;99.90
9509;DHT22;4792;50.088;8.122;2022-12-18T10:07:38;-2.40;99.90
9509;DHT22;4792;50.088;8.122;2022-12-18T10:10:16;-2.00;99.90
9509;DHT22;4792;50.088;8.122;2022-12-18T10:12:54;-2.10;99.90
9509;DHT22;4792;50.088;8.122;2022-12-18T10:15:34;-2.00;99.90
9509;DHT22;4792;50.088;8.122;2022-12-18T10:18:14;-2.00;99.90
9509;DHT22;4792;50.088;8.122;2022-12-18T10:20:49;-2.00;99.90
9509;DHT22;4792;50.088;8.122;2022-12-18T10:23:24;-2.00;99.90
9509;DHT22;4792;50.088;8.122;2022-12-18T10:25:57;-2.10;99.90
9509;DHT22;4792;50.088;8.122;2022-12-18T10:28:33;-2.10;99.90
9509;DHT22;4792;50.088;8.122;2022-12-18T10:31:01;-2.20;99.90
9509;DHT22;4792;50.088;8.122;2022-12-18T10:33:31;-2.40;99.90
9509;DHT22;4792;50.088;8.122;2022-12-18T10:36:00;-2.60;99.90
9509;DHT22;4792;50.088;8.122;2022-12-18T10:38:31;-2.90;99.90
9509;DHT22;4792;50.088;8.122;2022-12-18T10:41:02;-2.90;99.90
9509;DHT22;4792;50.088;8.122;2022-12-18T10:43:32;-2.80;99.90
9509;DHT22;4792;50.088;8.122;2022-12-18T10:46:07;-2.80;99.90
9509;DHT22;4792;50.088;8.122;2022-12-18T10:48:47;-2.70;99.90
9509;DHT22;4792;50.088;8.122;2022-12-18T10:51:20;-2.70;99.90
9509;DHT22;4792;50.088;8.122;2022-12-18T10:53:56;-2.30;99.90
9509;DHT22;4792;50.088;8.122;2022-12-18T10:56:26;-2.30;99.90
9509;DHT22;4792;50.088;8.122;2022-12-18T10:58:59;-1.90;99.90
9509;DHT22;4792;50.088;8.122;2022-12-18T11:01:28;-1.70;99.90
9509;DHT22;4792;50.088;8.122;2022-12-18T11:04:07;-1.50;99.90
9509;DHT22;4792;50.088;8.122;2022-12-18T11:06:52;-1.60;99.90
9509;DHT22;4792;50.088;8.122;2022-12-18T11:09:23;-1.80;99.90
9509;DHT22;4792;50.088;8.122;2022-12-18T11:11:53;-1.90;99.90
9509;DHT22;4792;50.088;8.122;2022-12-18T11:14:26;-1.90;99.90
9509;DHT22;4792;50.088;8.122;2022-12-18T11:16:55;-2.00;99.90
9509;DHT22;4792;50.088;8.122;2022-12-18T11:19:44;-2.20;99.90
9509;DHT22;4792;50.088;8.122;2022-12-18T11:22:21;-2.50;99.90
9509;DHT22;4792;50.088;8.122;2022-12-18T11:24:55;-2.60;99.90
9509;DHT22;4792;50.088;8.122;2022-12-18T11:27:48;-3.00;99.90
9509;DHT22;4792;50.088;8.122;2022-12-18T11:30:24;-3.40;99.90
9509;DHT22;4792;50.088;8.122;2022-12-18T11:32:55;-3.70;99.90
9509;DHT22;4792;50.088;8.122;2022-12-18T11:35:38;-3.80;99.90
9509;DHT22;4792;50.088;8.122;2022-12-18T11:38:17;-3.80;99.90
9509;DHT22;4792;50.088;8.122;2022-12-18T11:40:52;-3.60;99.90
9509;DHT22;4792;50.088;8.122;2022-12-18T11:43:26;-3.40;99.90
9509;DHT22;4792;50.088;8.122;2022-12-18T11:46:00;-3.00;99.90
9509;DHT22;4792;50.088;8.122;2022-12-18T11:48:34;-3.00;99.90
9509;DHT22;4792;50.088;8.122;2022-12-18T11:51:11;-3.10;99.90
9509;DHT22;4792;50.088;8.122;2022-12-18T11:53:40;-3.40;99.90
9509;DHT22;4792;50.088;8.122;2022-12-18T11:56:23;-3.60;99.90
9509;DHT22;4792;50.088;8.122;2022-12-18T11:59:02;-3.90;99.90
9509;DHT22;4792;50.088;8.122;2022-12-18T12:01:45;-4.10;99.90
9509;DHT22;4792;50.088;8.122;2022-12-18T12:04:36;-4.20;99.90
9509;DHT22;4792;50.088;8.122;2022-12-18T12:07:18;-4.30;99.90
9509;DHT22;4792;50.088;8.122;2022-12-18T12:09:56;-4.50;99.90
9509;DHT22;4792;50.088;8.122;2022-12-18T12:12:33;-4.50;99.90
9509;DHT22;4792;50.088;8.122;2022-12-18T12:15:23;-4.50;99.90
9509;DHT22;4792;50.088;8.122;2022-12-18T12:18:01;-4.60;99.90
9509;DHT22;4792;50.088;8.122;2022-12-18T12:20:46;-4.60;99.90
9509;DHT22;4792;50.088;8.122;2022-12-18T12:23:26;-4.60;99.90
9509;DHT22;4792;50.088;8.122;2022-12-18T12:26:02;-4.50;99.90
9509;DHT22;4792;50.088;8.122;2022-12-18T12:28:52;-4.50;99.90
9509;DHT22;4792;50.088;8.122;2022-12-18T12:31:36;-4.60;99.90
9509;DHT22;4792;50.088;8.122;2022-12-18T12:34:16;-4.50;99.90
9509;DHT22;4792;50.088;8.122;2022-12-18T12:36:57;-4.50;99.90
9509;DHT22;4792;50.088;8.122;2022-12-18T12:39:32;-4.60;99.90
9509;DHT22;4792;50.088;8.122;2022-12-18T12:42:03;-4.60;99.90
9509;DHT22;4792;50.088;8.122;2022-12-18T12:44:53;-4.60;99.90
9509;DHT22;4792;50.088;8.122;2022-12-18T12:47:25;-4.70;99.90
9509;DHT22;4792;50.088;8.122;2022-12-18T12:49:58;-4.80;99.90
9509;DHT22;4792;50.088;8.122;2022-12-18T12:52:34;-4.80;99.90
9509;DHT22;4792;50.088;8.122;2022-12-18T12:55:04;-4.80;99.90
9509;DHT22;4792;50.088;8.122;2022-12-18T12:57:45;-4.80;99.90
9509;DHT22;4792;50.088;8.122;2022-12-18T13:00:15;-4.80;99.90
9509;DHT22;4792;50.088;8.122;2022-12-18T13:02:49;-4.80;99.90
9509;DHT22;4792;50.088;8.122;2022-12-18T13:05:24;-4.80;99.90
9509;DHT22;4792;50.088;8.122;2022-12-18T13:07:59;-4.80;99.90
9509;DHT22;4792;50.088;8.122;2022-12-18T13:10:35;-4.80;99.90
9509;DHT22;4792;50.088;8.122;2022-12-18T13:13:06;-4.70;99.90
9509;DHT22;4792;50.088;8.122;2022-12-18T13:15:38;-4.70;99.90
9509;DHT22;4792;50.088;8.122;2022-12-18T13:18:18;-4.70;99.90
9509;DHT22;4792;50.088;8.122;2022-12-18T13:20:51;-4.70;99.90
9509;DHT22;4792;50.088;8.122;2022-12-18T13:23:32;-4.80;99.90
9509;DHT22;4792;50.088;8.122;2022-12-18T13:26:29;-4.70;99.90
9509;DHT22;4792;50.088;8.122;2022-12-18T13:28:58;-4.70;99.90
9509;DHT22;4792;50.088;8.122;2022-12-18T13:31:58;-4.80;99.90
9509;DHT22;4792;50.088;8.122;2022-12-18T13:34:28;-4.80;99.90
9509;DHT22;4792;50.088;8.122;2022-12-18T13:40:02;-4.70;99.90
9509;DHT22;4792;50.088;8.122;2022-12-18T13:42:40;-4.80;99.90
9509;DHT22;4792;50.088;8.122;2022-12-18T13:45:41;-4.90;99.90
9509;DHT22;4792;50.088;8.122;2022-12-18T13:48:17;-4.90;99.90
9509;DHT22;4792;50.088;8.122;2022-12-18T13:50:49;-5.00;99.90
9509;DHT22;4792;50.088;8.122;2022-12-18T13:53:21;-4.90;99.90
9509;DHT22;4792;50.088;8.122;2022-12-18T13:55:53;-4.90;99.90
9509;DHT22;4792;50.088;8.122;2022-12-18T13:58:22;-4.90;99.90
9509;DHT22;4792;50.088;8.122;2022-12-18T14:00:50;-4.90;99.90
9509;DHT22;4792;50.088;8.122;2022-12-18T14:03:21;-4.90;99.90
9509;DHT22;4792;50.088;8.122;2022-12-18T14:05:55;-4.90;99.90
9509;DHT22;4792;50.088;8.122;2022-12-18T14:08:29;-4.90;99.90
9509;DHT22;4792;50.088;8.122;2022-12-18T14:11:02;-4.90;99.90
9509;DHT22;4792;50.088;8.122;2022-12-18T14:13:35;-5.00;99.90
9509;DHT22;4792;50.088;8.122;2022-12-18T14:16:06;-5.10;99.90
9509;DHT22;4792;50.088;8.122;2022-12-18T14:18:43;-5.10;99.90
9509;DHT22;4792;50.088;8.122;2022-12-18T14:21:25;-5.10;99.90
9509;DHT22;4792;50.088;8.122;2022-12-18T14:24:05;-5.20;99.90
9509;DHT22;4792;50.088;8.122;2022-12-18T14:26:35;-5.20;99.90
9509;DHT22;4792;50.088;8.122;2022-12-18T14:29:19;-5.20;99.90
9509;DHT22;4792;50.088;8.122;2022-12-18T14:32:04;-5.10;99.90
9509;DHT22;4792;50.088;8.122;2022-12-18T14:34:37;-5.10;99.90
9509;DHT22;4792;50.088;8.122;2022-12-18T14:37:08;-5.20;99.90
9509;DHT22;4792;50.088;8.122;2022-12-18T14:39:37;-5.10;99.90
9509;DHT22;4792;50.088;8.122;2022-12-18T14:42:10;-5.10;99.90
9509;DHT22;4792;50.088;8.122;2022-12-18T14:44:38;-5.10;99.90
9509;DHT22;4792;50.088;8.122;2022-12-18T14:47:27;-5.10;99.90
9509;DHT22;4792;50.088;8.122;2022-12-18T14:49:55;-5.10;99.90
9509;DHT22;4792;50.088;8.122;2022-12-18T14:52:27;-5.10;99.90
9509;DHT22;4792;50.088;8.122;2022-12-18T14:54:57;-5.10;99.90
9509;DHT22;4792;50.088;8.122;2022-12-18T14:57:31;-5.00;99.90
9509;DHT22;4792;50.088;8.122;2022-12-18T15:00:10;-5.00;99.90
9509;DHT22;4792;50.088;8.122;2022-12-18T15:02:45;-5.00;99.90
9509;DHT22;4792;50.088;8.122;2022-12-18T15:05:19;-5.00;99.90
9509;DHT22;4792;50.088;8.122;2022-12-18T15:07:49;-5.00;99.90
9509;DHT22;4792;50.088;8.122;2022-12-18T15:10:19;-5.00;99.90
9509;DHT22;4792;50.088;8.122;2022-12-18T15:12:50;-5.10;99.90
9509;DHT22;4792;50.088;8.122;2022-12-18T15:15:47;-5.10;99.90
9509;DHT22;4792;50.088;8.122;2022-12-18T15:18:16;-5.10;99.90
9509;DHT22;4792;50.088;8.122;2022-12-18T15:20:48;-5.20;99.90
9509;DHT22;4792;50.088;8.122;2022-12-18T15:23:19;-5.20;99.90
9509;DHT22;4792;50.088;8.122;2022-12-18T15:25:54;-5.20;99.90
9509;DHT22;4792;50.088;8.122;2022-12-18T15:28:26;-5.20;99.90
9509;DHT22;4792;50.088;8.122;2022-12-18T15:31:17;-5.20;99.90
9509;DHT22;4792;50.088;8.122;2022-12-18T15:34:04;-5.20;99.90
9509;DHT22;4792;50.088;8.122;2022-12-18T15:36:33;-5.20;99.90
9509;DHT22;4792;50.088;8.122;2022-12-18T15:39:03;-5.20;99.90
9509;DHT22;4792;50.088;8.122;2022-12-18T15:41:34;-5.20;99.90
9509;DHT22;4792;50.088;8.122;2022-12-18T15:44:21;-5.20;99.90
9509;DHT22;4792;50.088;8.122;2022-12-18T15:46:49;-5.20;99.90
9509;DHT22;4792;50.088;8.122;2022-12-18T15:49:17;-5.20;99.90
9509;DHT22;4792;50.088;8.122;2022-12-18T15:51:49;-5.10;99.90
9509;DHT22;4792;50.088;8.122;2022-12-18T15:54:18;-5.10;99.90
9509;DHT22;4792;50.088;8.122;2022-12-18T15:57:09;-5.20;99.90
9509;DHT22;4792;50.088;8.122;2022-12-18T15:59:55;-5.10;99.90
9509;DHT22;4792;50.088;8.122;2022-12-18T16:02:26;-5.10;99.90
9509;DHT22;4792;50.088;8.122;2022-12-18T16:04:55;-5.10;99.90
9509;DHT22;4792;50.088;8.122;2022-12-18T16:07:23;-5.10;99.90
9509;DHT22;4792;50.088;8.122;2022-12-18T16:09:56;-5.10;99.90
9509;DHT22;4792;50.088;8.122;2022-12-18T16:12:26;-5.10;99.90
9509;DHT22;4792;50.088;8.122;2022-12-18T16:14:55;-5.10;99.90
9509;DHT22;4792;50.088;8.122;2022-12-18T16:17:23;-5.10;99.90
9509;DHT22;4792;50.088;8.122;2022-12-18T16:19:52;-5.10;99.90
9509;DHT22;4792;50.088;8.122;2022-12-18T16:22:22;-5.10;99.90
9509;DHT22;4792;50.088;8.122;2022-12-18T16:24:51;-5.10;99.90
9509;DHT22;4792;50.088;8.122;2022-12-18T16:27:19;-5.10;99.90
9509;DHT22;4792;50.088;8.122;2022-12-18T16:29:48;-5.00;99.90
9509;DHT22;4792;50.088;8.122;2022-12-18T16:32:19;-5.00;99.90
9509;DHT22;4792;50.088;8.122;2022-12-18T16:34:48;-5.00;99.90
9509;DHT22;4792;50.088;8.122;2022-12-18T16:37:17;-5.00;99.90
9509;DHT22;4792;50.088;8.122;2022-12-18T16:39:45;-5.00;99.90